Time;durP1;ratioP1;P1;durP2;ratioP2;P2;SDS_P1;SDS_P2;PMS_P1;PMS_P2;Temp;Humidity;BMP_temperature;BMP_pressure;BME280_temperature;BME280_humidity;BME280_pressure;Samples;Min_cycle;Max_cycle;Signal;HPM_P1;HPM_P2
2022/05/19 00:02:22;;;;;;;2.92;2.00;;;21.50;60.00;;;;;;4992727;28;93094;-63
2022/05/19 00:04:48;;;;;;;2.20;1.90;;;21.60;60.00;;;;;;4992753;28;92603;-63
2022/05/19 00:07:14;;;;;;;3.92;1.90;;;21.60;60.10;;;;;;4991450;28;93092;-63
2022/05/19 00:09:40;;;;;;;3.47;2.10;;;21.60;60.10;;;;;;4992357;28;92629;-63
2022/05/19 00:12:14;;;;;;;2.72;2.10;;;21.60;60.10;;;;;;4972978;28;95481;-63
2022/05/19 00:14:40;;;;;;;2.65;2.00;;;21.60;60.10;;;;;;4991875;28;95474;-63
2022/05/19 00:17:06;;;;;;;3.10;2.10;;;21.60;60.10;;;;;;4974425;28;92910;-63
2022/05/19 00:19:31;;;;;;;4.10;2.20;;;21.60;60.10;;;;;;4993250;28;93000;-63
2022/05/19 00:21:57;;;;;;;3.15;2.22;;;21.50;60.10;;;;;;4993165;28;93092;-63
2022/05/19 00:24:23;;;;;;;2.60;2.22;;;21.60;60.20;;;;;;4992084;28;93572;-62
2022/05/19 00:26:49;;;;;;;2.67;1.95;;;21.60;60.20;;;;;;4974728;28;92926;-63
2022/05/19 00:29:14;;;;;;;2.30;1.98;;;21.60;60.20;;;;;;4993409;28;92173;-63
2022/05/19 00:31:40;;;;;;;2.95;2.00;;;21.60;60.10;;;;;;4992438;28;93155;-63
2022/05/19 00:34:06;;;;;;;2.92;1.90;;;21.60;60.20;;;;;;4991524;28;92974;-63
2022/05/19 00:36:33;;;;;;;2.97;2.22;;;21.60;60.20;;;;;;4972965;28;94965;-63
2022/05/19 00:38:58;;;;;;;2.38;1.90;;;21.60;60.20;;;;;;4973985;28;93005;-63
2022/05/19 00:41:25;;;;;;;2.45;1.95;;;21.50;60.10;;;;;;4992185;28;93132;-63
2022/05/19 00:44:05;;;;;;;3.15;1.73;;;21.60;60.20;;;;;;4991897;28;92795;-63
2022/05/19 00:46:45;;;;;;;2.30;1.95;;;21.60;60.20;;;;;;4992340;28;92492;-63
2022/05/19 00:49:14;;;;;;;2.08;1.80;;;21.60;60.20;;;;;;4991592;28;92897;-63
2022/05/19 00:52:00;;;;;;;2.63;2.10;;;21.60;60.20;;;;;;4991321;28;93100;-63
2022/05/19 00:54:32;;;;;;;2.80;2.03;;;21.60;60.10;;;;;;4992164;28;92490;-62
2022/05/19 00:57:05;;;;;;;2.53;2.20;;;21.50;60.10;;;;;;4974690;28;92991;-62
2022/05/19 00:59:39;;;;;;;3.03;2.17;;;21.50;60.20;;;;;;4991589;28;92889;-62
2022/05/19 01:02:08;;;;;;;2.85;2.20;;;21.60;60.20;;;;;;4971406;28;96427;-62
2022/05/19 01:04:46;;;;;;;2.88;2.30;;;21.60;60.20;;;;;;4956570;28;96601;-62
2022/05/19 01:07:19;;;;;;;3.92;2.20;;;21.60;60.20;;;;;;4990851;28;92526;-63
2022/05/19 01:09:46;;;;;;;;;;;21.50;60.10;;;;;;4991711;28;92816;-62
2022/05/19 01:12:11;;;;;;;2.90;2.40;;;21.50;60.10;;;;;;4991773;28;93318;-63
2022/05/19 01:14:37;;;;;;;3.38;1.90;;;21.50;60.40;;;;;;4991250;28;93085;-62
2022/05/19 01:17:05;;;;;;;3.17;2.38;;;21.50;60.20;;;;;;4973317;28;93104;-62
2022/05/19 01:19:57;;;;;;;3.03;2.42;;;21.50;60.20;;;;;;4991385;28;91813;-62
2022/05/19 01:22:49;;;;;;;2.80;2.28;;;21.50;60.50;;;;;;4972944;28;95256;-62
2022/05/19 01:25:51;;;;;;;3.08;2.50;;;21.50;60.20;;;;;;4972338;28;94316;-62
2022/05/19 01:28:17;;;;;;;3.20;2.42;;;21.50;60.20;;;;;;4972860;28;95451;-62
2022/05/19 01:30:43;;;;;;;3.40;2.63;;;21.50;60.30;;;;;;4991378;28;92986;-62
2022/05/19 01:33:08;;;;;;;2.60;2.40;;;21.50;60.30;;;;;;4991246;28;94156;-62
2022/05/19 01:35:34;;;;;;;2.78;2.38;;;21.50;60.30;;;;;;4990850;28;92715;-62
2022/05/19 01:38:03;;;;;;;3.50;2.50;;;21.50;60.30;;;;;;4972567;28;92509;-62
2022/05/19 01:40:44;;;;;;;2.78;2.38;;;21.50;60.20;;;;;;4973102;28;93043;-62
2022/05/19 01:43:30;;;;;;;3.50;2.40;;;21.50;60.10;;;;;;4991109;28;93199;-62
2022/05/19 01:46:22;;;;;;;2.88;2.47;;;21.50;60.10;;;;;;4990716;28;92835;-62
2022/05/19 01:49:06;;;;;;;3.25;2.53;;;21.50;60.20;;;;;;4991314;28;92566;-62
2022/05/19 01:51:50;;;;;;;3.80;2.58;;;21.50;60.30;;;;;;4974806;28;92718;-62
2022/05/19 01:54:22;;;;;;;3.45;2.53;;;21.50;60.30;;;;;;4989573;28;95452;-62
2022/05/19 01:57:08;;;;;;;3.90;2.75;;;21.50;60.30;;;;;;4990236;28;95087;-62
2022/05/19 01:59:40;;;;;;;4.22;2.90;;;21.50;60.30;;;;;;4972033;28;93030;-62
2022/05/19 02:02:22;;;;;;;3.35;2.90;;;21.50;60.30;;;;;;4972747;28;92554;-62
2022/05/19 02:05:02;;;;;;;5.10;3.40;;;21.50;60.20;;;;;;4990037;28;93643;-62
2022/05/19 02:07:30;;;;;;;4.90;2.83;;;21.50;60.20;;;;;;4971725;28;92749;-63
2022/05/19 02:10:18;;;;;;;3.28;2.80;;;21.50;60.30;;;;;;4972167;28;92454;-62
2022/05/19 02:12:46;;;;;;;3.75;2.75;;;21.50;60.30;;;;;;4972823;28;92462;-62
2022/05/19 02:15:15;;;;;;;4.07;2.65;;;21.50;60.30;;;;;;4972098;28;92823;-62
2022/05/19 02:17:43;;;;;;;3.20;2.88;;;21.50;60.30;;;;;;4989806;28;92991;-62
2022/05/19 02:20:12;;;;;;;3.63;3.17;;;21.40;60.20;;;;;;4988992;28;95299;-62
2022/05/19 02:22:42;;;;;;;3.80;3.08;;;21.50;60.30;;;;;;4991007;28;92932;-62
2022/05/19 02:25:14;;;;;;;4.97;3.10;;;21.50;60.30;;;;;;4991575;28;93077;-62
2022/05/19 02:27:56;;;;;;;4.43;3.20;;;21.50;60.30;;;;;;4991028;28;92654;-62
2022/05/19 02:30:27;;;;;;;4.32;3.15;;;21.40;60.20;;;;;;4990606;28;92917;-62
2022/05/19 02:32:53;;;;;;;3.47;3.10;;;21.50;60.40;;;;;;4990469;28;92863;-62
2022/05/19 02:35:19;;;;;;;4.30;3.30;;;21.50;60.30;;;;;;4990521;28;93045;-62
2022/05/19 02:37:45;;;;;;;4.00;3.28;;;21.50;60.30;;;;;;4990414;28;93232;-62
2022/05/19 02:40:13;;;;;;;3.70;3.30;;;21.50;60.30;;;;;;4990569;28;92529;-62
2022/05/19 02:42:39;;;;;;;4.25;3.25;;;21.40;60.30;;;;;;4989680;28;93200;-62
2022/05/19 02:45:05;;;;;;;3.60;3.30;;;21.50;60.30;;;;;;4970634;28;95012;-62
2022/05/19 02:47:30;;;;;;;3.50;3.20;;;21.40;60.20;;;;;;4989823;28;95235;-62
2022/05/19 02:49:56;;;;;;;3.88;3.28;;;21.40;60.20;;;;;;4990279;28;92481;-61
2022/05/19 02:52:22;;;;;;;4.38;3.30;;;21.50;60.30;;;;;;4971113;28;92990;-62
2022/05/19 02:54:47;;;;;;;3.35;3.05;;;21.50;60.30;;;;;;4990054;28;93067;-62
2022/05/19 02:57:13;;;;;;;4.15;3.33;;;21.50;60.30;;;;;;4989108;28;93341;-62
2022/05/19 02:59:39;;;;;;;4.57;3.50;;;21.40;60.30;;;;;;4990402;28;92492;-62
2022/05/19 03:02:04;;;;;;;3.88;3.40;;;21.40;60.30;;;;;;4990336;28;91901;-62
2022/05/19 03:04:30;;;;;;;3.45;3.13;;;21.40;60.30;;;;;;4989159;28;92791;-62
2022/05/19 03:06:56;;;;;;;4.50;3.70;;;21.40;60.30;;;;;;4989709;28;92954;-62
2022/05/19 03:09:21;;;;;;;4.05;3.65;;;21.40;60.30;;;;;;4988508;28;94875;-62
2022/05/19 03:11:48;;;;;;;3.67;3.38;;;21.40;60.40;;;;;;4989087;28;92534;-61
2022/05/19 03:14:13;;;;;;;3.72;3.35;;;21.40;60.30;;;;;;4989714;28;93216;-62
2022/05/19 03:16:40;;;;;;;4.53;3.45;;;21.40;60.30;;;;;;4988880;28;92957;-62
2022/05/19 03:19:06;;;;;;;4.05;3.65;;;21.40;60.40;;;;;;4990219;28;92587;-61
2022/05/19 03:21:32;;;;;;;4.80;4.05;;;21.40;60.30;;;;;;4989715;28;92646;-62
2022/05/19 03:23:57;;;;;;;4.03;3.47;;;21.40;60.30;;;;;;4989251;28;92995;-62
2022/05/19 03:26:23;;;;;;;5.13;3.88;;;21.40;60.40;;;;;;4989844;28;93329;-62
2022/05/19 03:28:48;;;;;;;4.00;3.60;;;21.40;60.30;;;;;;4990064;28;93053;-62
2022/05/19 03:31:14;;;;;;;4.43;3.60;;;21.40;60.30;;;;;;4989651;28;92563;-62
2022/05/19 03:33:40;;;;;;;4.95;3.83;;;21.40;60.30;;;;;;4988456;28;95541;-62
2022/05/19 03:36:06;;;;;;;4.72;3.60;;;21.40;60.30;;;;;;4971389;28;97101;-61
2022/05/19 03:38:32;;;;;;;4.40;3.70;;;21.40;60.40;;;;;;4989410;28;92947;-62
2022/05/19 03:40:58;;;;;;;4.53;3.75;;;21.40;60.40;;;;;;4989558;28;92995;-62
2022/05/19 03:43:23;;;;;;;4.95;4.25;;;21.40;60.40;;;;;;4971079;28;93336;-62
2022/05/19 03:45:49;;;;;;;6.30;4.18;;;21.40;60.40;;;;;;4987816;28;92715;-62
2022/05/19 03:48:14;;;;;;;4.60;3.72;;;21.40;60.40;;;;;;4971524;28;93383;-62
2022/05/19 03:50:44;;;;;;;4.80;4.15;;;21.40;60.40;;;;;;4989799;28;91674;-62
2022/05/19 03:53:10;;;;;;;4.97;4.10;;;21.50;60.40;;;;;;4989143;28;92938;-62
2022/05/19 03:55:36;;;;;;;5.35;4.13;;;21.40;60.40;;;;;;4989440;28;92730;-62
2022/05/19 03:58:01;;;;;;;6.07;4.70;;;21.40;61.40;;;;;;4988078;28;94937;-61
2022/05/19 04:00:27;;;;;;;4.70;3.92;;;21.40;60.40;;;;;;4989246;28;92471;-62
2022/05/19 04:02:53;;;;;;;5.25;4.30;;;21.40;60.40;;;;;;4989083;28;94366;-62
2022/05/19 04:05:18;;;;;;;6.75;4.15;;;21.40;60.50;;;;;;4988002;28;93283;-62
2022/05/19 04:07:44;;;;;;;5.07;4.57;;;21.40;60.40;;;;;;4988451;28;92785;-62
2022/05/19 04:10:11;;;;;;;7.07;4.82;;;21.40;60.50;;;;;;4992461;28;92907;-61
2022/05/19 04:12:37;;;;;;;5.45;4.65;;;21.40;60.50;;;;;;4992274;28;92537;-62
2022/05/19 04:15:07;;;;;;;6.72;4.90;;;21.40;61.50;;;;;;4974714;28;93730;-62
2022/05/19 04:17:35;;;;;;;5.22;4.72;;;21.40;60.50;;;;;;4992115;28;92998;-62
2022/05/19 04:20:03;;;;;;;6.28;4.95;;;21.40;60.50;;;;;;4992258;28;92486;-62
2022/05/19 04:22:29;;;;;;;5.40;4.65;;;21.40;60.60;;;;;;4978265;28;96095;-62
2022/05/19 04:24:54;;;;;;;5.53;4.82;;;21.40;60.60;;;;;;5006429;28;93956;-60
2022/05/19 04:27:20;;;;;;;6.88;5.05;;;21.40;60.60;;;;;;4993926;28;92903;-62
2022/05/19 04:29:48;;;;;;;5.47;4.97;;;21.40;60.60;;;;;;4992439;28;92494;-62
2022/05/19 04:32:15;;;;;;;5.00;4.50;;;21.40;60.60;;;;;;4991537;28;92964;-62
2022/05/19 04:34:42;;;;;;;5.45;4.63;;;21.40;60.60;;;;;;4991721;28;92633;-62
2022/05/19 04:37:08;;;;;;;5.68;5.18;;;21.40;60.70;;;;;;4992539;28;93004;-62
2022/05/19 04:39:34;;;;;;;4.93;4.43;;;21.40;60.70;;;;;;4974445;28;92350;-62
2022/05/19 04:42:03;;;;;;;5.95;4.85;;;21.40;60.70;;;;;;4991712;28;93080;-63
2022/05/19 04:44:29;;;;;;;5.13;4.50;;;21.40;60.70;;;;;;4991619;28;93345;-63
2022/05/19 04:46:54;;;;;;;5.45;4.68;;;21.40;60.70;;;;;;4991105;28;95163;-63
2022/05/19 04:49:20;;;;;;;5.13;4.43;;;21.40;60.80;;;;;;4992474;28;92554;-62
2022/05/19 04:51:46;;;;;;;5.43;4.90;;;21.40;60.80;;;;;;4991513;28;93065;-62
2022/05/19 04:54:11;;;;;;;5.50;5.00;;;21.40;60.80;;;;;;4973704;28;94966;-62
2022/05/19 04:56:40;;;;;;;4.93;4.50;;;21.40;60.80;;;;;;4991335;28;92487;-62
2022/05/19 04:59:13;;;;;;;6.30;4.30;;;21.40;60.80;;;;;;4992496;28;92576;-62
2022/05/19 05:01:39;;;;;;;5.53;4.28;;;21.40;60.80;;;;;;4992036;28;93099;-62
2022/05/19 05:04:04;;;;;;;7.95;4.43;;;21.40;60.80;;;;;;4991427;28;93393;-62
2022/05/19 05:06:32;;;;;;;7.35;4.70;;;21.40;61.40;;;;;;4991790;28;92513;-61
2022/05/19 05:08:57;;;;;;;5.22;4.43;;;21.40;61.50;;;;;;4972680;28;92573;-62
2022/05/19 05:11:23;;;;;;;5.15;3.90;;;21.40;61.60;;;;;;4971813;28;95792;-62
2022/05/19 05:13:49;;;;;;;8.63;3.83;;;21.40;62.00;;;;;;4991145;28;94863;-62
2022/05/19 05:16:15;;;;;;;6.45;3.90;;;21.40;62.10;;;;;;4973146;28;92884;-62
2022/05/19 05:18:40;;;;;;;4.50;3.65;;;21.40;62.20;;;;;;4991397;28;92519;-62
2022/05/19 05:21:06;;;;;;;7.90;3.65;;;21.50;62.30;;;;;;4990772;28;93151;-62
2022/05/19 05:23:32;;;;;;;5.35;3.47;;;21.50;62.30;;;;;;4990830;28;92628;-63
2022/05/19 05:25:59;;;;;;;5.28;3.47;;;21.50;62.30;;;;;;4973423;28;92857;-62
2022/05/19 05:28:24;;;;;;;4.32;3.13;;;21.50;62.50;;;;;;4991491;28;91780;-63
2022/05/19 05:30:51;;;;;;;3.55;3.25;;;21.50;62.50;;;;;;4990918;28;94137;-62
2022/05/19 05:33:17;;;;;;;4.85;3.33;;;21.50;62.50;;;;;;4990958;28;92871;-63
2022/05/19 05:35:43;;;;;;;6.53;3.30;;;21.50;62.50;;;;;;4990100;28;95253;-62
2022/05/19 05:38:09;;;;;;;10.80;3.35;;;21.50;62.70;;;;;;4991139;28;93013;-62
2022/05/19 05:40:35;;;;;;;4.85;2.90;;;21.50;62.70;;;;;;4991402;28;92959;-62
2022/05/19 05:43:06;;;;;;;3.78;3.20;;;21.50;62.70;;;;;;4991587;28;92599;-63
2022/05/19 05:45:31;;;;;;;7.72;3.30;;;21.50;62.70;;;;;;4972379;28;92625;-63
2022/05/19 05:47:57;;;;;;;4.22;2.78;;;21.60;63.00;;;;;;4991332;28;92472;-62
2022/05/19 05:50:23;;;;;;;3.80;2.83;;;21.60;62.60;;;;;;4991735;28;93205;-62
2022/05/19 05:52:48;;;;;;;6.28;3.00;;;21.60;62.50;;;;;;4991782;28;92696;-63
2022/05/19 05:55:14;;;;;;;4.95;2.70;;;21.50;62.30;;;;;;4991035;28;92631;-63
2022/05/19 05:57:40;;;;;;;8.25;3.05;;;21.50;62.60;;;;;;4990806;28;93011;-63
2022/05/19 06:00:07;;;;;;;5.53;2.80;;;21.50;62.80;;;;;;4989518;28;95179;-62
2022/05/19 06:02:33;;;;;;;73.68;5.93;;;21.60;62.90;;;;;;4990686;28;95235;-62
2022/05/19 06:04:59;;;;;;;37.47;3.60;;;21.60;62.90;;;;;;4956065;28;92648;-62
2022/05/19 06:07:27;;;;;;;36.25;3.90;;;21.50;63.00;;;;;;4990588;28;92775;-62
2022/05/19 06:09:53;;;;;;;26.52;3.75;;;21.60;63.20;;;;;;4990975;28;93686;-62
2022/05/19 06:12:19;;;;;;;30.08;3.75;;;21.60;63.40;;;;;;4990674;28;92695;-62
2022/05/19 06:14:45;;;;;;;21.05;3.25;;;21.60;63.50;;;;;;4990173;28;92761;-62
2022/05/19 06:17:10;;;;;;;30.20;3.40;;;21.60;63.50;;;;;;4972531;28;92491;-62
2022/05/19 06:19:36;;;;;;;27.15;3.60;;;21.60;63.60;;;;;;4990633;28;93013;-62
2022/05/19 06:22:01;;;;;;;25.60;3.70;;;21.60;63.60;;;;;;4990393;28;98636;-62
2022/05/19 06:24:27;;;;;;;27.45;3.13;;;21.60;63.50;;;;;;4989880;28;94906;-62
2022/05/19 06:26:53;;;;;;;25.70;2.92;;;21.60;63.40;;;;;;4990276;28;92654;-62
2022/05/19 06:29:19;;;;;;;15.65;2.85;;;21.60;63.40;;;;;;4989997;28;93031;-62
2022/05/19 06:31:45;;;;;;;20.48;3.28;;;21.60;63.30;;;;;;4989129;28;92568;-63
2022/05/19 06:34:11;;;;;;;22.33;2.90;;;21.60;63.30;;;;;;4971864;28;93375;-62
2022/05/19 06:36:36;;;;;;;23.35;3.60;;;21.60;63.30;;;;;;4990421;28;92576;-62
2022/05/19 06:39:03;;;;;;;19.45;3.00;;;21.50;64.30;;;;;;4972342;28;93116;-62
2022/05/19 06:44:13;;;;;;;10.77;2.88;;;21.60;63.60;;;;;;4989562;28;92479;-62
2022/05/19 06:46:39;;;;;;;12.05;2.80;;;21.60;63.80;;;;;;4989885;28;93040;-63
2022/05/19 06:49:04;;;;;;;16.40;3.00;;;21.60;64.00;;;;;;4989183;28;95601;-62
2022/05/19 06:51:31;;;;;;;16.30;2.97;;;21.50;64.10;;;;;;4971782;28;95461;-62
2022/05/19 06:53:57;;;;;;;13.30;2.90;;;21.60;64.10;;;;;;4990399;28;93052;-62
2022/05/19 06:56:23;;;;;;;9.85;2.63;;;21.60;64.20;;;;;;4972041;28;92548;-62
2022/05/19 06:58:48;;;;;;;9.98;2.83;;;21.60;64.30;;;;;;4988167;28;93266;-62
2022/05/19 07:01:14;;;;;;;9.52;2.88;;;21.60;64.40;;;;;;4988527;28;97296;-63
2022/05/19 07:03:39;;;;;;;9.07;2.85;;;21.60;64.40;;;;;;4990038;28;92939;-62
2022/05/19 07:06:05;;;;;;;14.55;3.65;;;21.60;64.40;;;;;;4989947;28;91976;-62
2022/05/19 07:08:31;;;;;;;16.48;3.03;;;21.50;64.30;;;;;;4989537;28;93198;-63
2022/05/19 07:10:57;;;;;;;9.75;2.90;;;21.50;64.30;;;;;;4988641;28;92755;-63
2022/05/19 07:13:22;;;;;;;11.20;2.80;;;21.60;64.40;;;;;;4970115;28;94978;-63
2022/05/19 07:15:48;;;;;;;14.38;2.90;;;21.60;64.30;;;;;;4989959;28;93001;-63
2022/05/19 07:18:14;;;;;;;7.70;2.80;;;21.60;64.30;;;;;;4989368;28;93213;-63
2022/05/19 07:20:47;;;;;;;9.40;2.65;;;21.50;64.30;;;;;;4988113;28;93328;-62
2022/05/19 07:23:24;;;;;;;13.43;2.78;;;21.50;64.30;;;;;;4988497;28;92574;-62
2022/05/19 07:25:50;;;;;;;10.13;2.80;;;21.50;64.30;;;;;;4989555;28;92442;-63
2022/05/19 07:28:18;;;;;;;10.48;2.72;;;21.50;64.30;;;;;;4989073;28;93027;-63
2022/05/19 07:30:46;;;;;;;9.18;2.90;;;21.50;64.30;;;;;;4989056;28;93817;-63
2022/05/19 07:33:12;;;;;;;10.57;2.47;;;21.60;64.50;;;;;;4989730;28;92734;-61
2022/05/19 07:35:40;;;;;;;9.20;2.58;;;21.50;64.40;;;;;;4989538;28;92976;-61
2022/05/19 07:38:05;;;;;;;10.05;2.70;;;21.50;64.40;;;;;;4969119;28;95511;-63
2022/05/19 07:40:31;;;;;;;11.07;2.65;;;21.60;64.50;;;;;;4988590;28;95142;-63
2022/05/19 07:43:35;;;;;;;8.35;2.83;;;21.50;64.40;;;;;;4970875;28;92851;-61
2022/05/19 07:45:45;;;;;;;7.90;2.97;;;21.50;64.40;;;;;;4991944;28;92516;-61
2022/05/19 07:48:11;;;;;;;6.57;2.63;;;21.50;64.40;;;;;;4992246;28;93091;-63
2022/05/19 07:50:37;;;;;;;10.95;2.95;;;21.50;64.50;;;;;;4973645;28;93841;-63
2022/05/19 07:53:02;;;;;;;9.30;3.10;;;21.50;64.50;;;;;;4992397;28;93000;-60
2022/05/19 07:55:28;;;;;;;10.07;2.60;;;21.50;64.50;;;;;;4974743;28;91872;-61
2022/05/19 07:57:53;;;;;;;8.50;2.72;;;21.50;64.50;;;;;;4992340;28;93244;-61
2022/05/19 08:00:20;;;;;;;5.72;2.45;;;21.50;64.50;;;;;;4992837;28;92701;-62
2022/05/19 08:02:46;;;;;;;9.15;2.75;;;21.60;64.60;;;;;;4972232;28;94980;-64
2022/05/19 08:05:12;;;;;;;11.27;2.90;;;21.50;64.60;;;;;;4974599;28;93049;-62
2022/05/19 08:07:37;;;;;;;5.70;2.60;;;21.50;64.50;;;;;;4974316;28;93293;-61
2022/05/19 08:10:24;;;;;;;4.68;2.47;;;21.60;64.60;;;;;;4992656;28;93340;-61
2022/05/19 08:15:40;;;;;;;6.85;2.67;;;21.60;64.60;;;;;;4992140;28;92495;-62
2022/05/19 08:18:12;;;;;;;4.75;2.40;;;21.60;64.60;;;;;;4992600;28;94115;-62
2022/05/19 08:20:52;;;;;;;9.27;2.60;;;21.60;64.70;;;;;;4993102;28;93864;-62
2022/05/19 08:23:27;;;;;;;2.63;2.35;;;21.60;64.80;;;;;;4992420;28;92483;-62
2022/05/19 08:25:53;;;;;;;7.70;2.38;;;21.60;64.80;;;;;;4992633;28;92541;-62
2022/05/19 08:28:19;;;;;;;3.47;2.05;;;21.50;64.60;;;;;;4990742;28;95275;-62
2022/05/19 08:30:48;;;;;;;6.28;2.40;;;21.60;64.80;;;;;;4991962;28;95126;-63
2022/05/19 08:33:16;;;;;;;5.35;2.70;;;21.60;65.70;;;;;;4992725;28;92503;-62
2022/05/19 08:35:41;;;;;;;6.03;2.47;;;21.60;64.70;;;;;;4991869;28;92755;-62
2022/05/19 08:38:07;;;;;;;4.45;2.40;;;21.60;64.60;;;;;;4992878;28;92882;-63
2022/05/19 08:40:47;;;;;;;6.82;2.63;;;21.60;64.60;;;;;;4991763;28;93428;-62
2022/05/19 08:43:19;;;;;;;4.57;2.10;;;21.70;64.70;;;;;;4973896;28;92695;-63
2022/05/19 08:45:53;;;;;;;5.43;2.25;;;21.60;64.70;;;;;;4991240;28;91906;-63
2022/05/19 08:48:25;;;;;;;4.30;2.15;;;21.60;64.70;;;;;;4992032;28;92990;-62
2022/05/19 08:50:59;;;;;;;5.25;2.20;;;21.70;64.70;;;;;;4991345;28;92540;-62
2022/05/19 08:53:32;;;;;;;5.85;2.60;;;21.60;64.70;;;;;;4990904;28;95245;-62
2022/05/19 08:56:04;;;;;;;4.30;2.50;;;21.60;64.70;;;;;;4971339;28;93431;-63
2022/05/19 08:58:51;;;;;;;3.28;2.50;;;21.70;64.70;;;;;;4991137;28;94664;-63
2022/05/19 09:01:20;;;;;;;4.03;2.30;;;21.60;64.80;;;;;;4991679;28;93003;-63
2022/05/19 09:03:48;;;;;;;4.53;2.50;;;21.70;65.00;;;;;;4991015;28;92453;-63
2022/05/19 09:06:21;;;;;;;5.32;2.25;;;21.70;64.90;;;;;;4990988;28;92543;-63
2022/05/19 09:08:59;;;;;;;5.57;2.58;;;21.70;64.90;;;;;;4990531;28;93447;-63
2022/05/19 09:11:48;;;;;;;3.15;2.72;;;21.70;64.90;;;;;;4991773;28;92919;-63
2022/05/19 09:14:27;;;;;;;4.40;3.00;;;21.70;65.20;;;;;;4994397;28;92603;-63
2022/05/19 09:16:59;;;;;;;5.65;2.72;;;21.70;65.60;;;;;;4970452;28;92566;-63
2022/05/19 09:19:36;;;;;;;4.88;2.60;;;21.80;65.80;;;;;;4970398;28;96673;-63
2022/05/19 09:22:15;;;;;;;6.32;2.72;;;21.80;66.00;;;;;;4971194;28;95116;-63
2022/05/19 09:24:45;;;;;;;8.00;3.28;;;21.80;66.30;;;;;;4954109;28;92832;-63
2022/05/19 09:27:11;;;;;;;4.55;2.75;;;21.70;66.40;;;;;;4971009;28;92530;-63
2022/05/19 09:29:50;;;;;;;4.57;2.97;;;21.80;66.60;;;;;;4970632;28;93459;-63
2022/05/19 09:32:18;;;;;;;2.80;2.60;;;21.80;66.70;;;;;;4971543;28;92844;-63
2022/05/19 09:34:50;;;;;;;4.05;2.83;;;21.80;66.80;;;;;;4971594;28;92912;-63
2022/05/19 09:37:35;;;;;;;3.50;3.20;;;21.80;67.00;;;;;;4971110;28;92417;-63
2022/05/19 09:40:11;;;;;;;4.50;3.08;;;21.80;67.20;;;;;;4970642;28;93216;-62
2022/05/19 09:42:58;;;;;;;3.53;2.42;;;21.80;67.50;;;;;;4971355;28;92709;-62
2022/05/19 09:45:27;;;;;;;3.75;3.05;;;21.90;67.90;;;;;;4969792;28;95402;-63
2022/05/19 09:48:05;;;;;;;3.25;2.88;;;21.80;67.80;;;;;;4968385;28;92613;-63
2022/05/19 09:50:37;;;;;;;3.58;2.60;;;21.80;67.90;;;;;;4970723;28;92851;-63
2022/05/19 09:53:06;;;;;;;4.93;2.83;;;21.80;68.00;;;;;;4970923;28;92941;-63
2022/05/19 09:55:37;;;;;;;4.60;3.42;;;21.80;68.00;;;;;;4970976;28;92504;-63
2022/05/19 09:58:06;;;;;;;3.65;3.00;;;21.80;68.20;;;;;;4969823;28;92512;-63
2022/05/19 10:00:44;;;;;;;5.47;2.72;;;21.80;68.30;;;;;;4968528;28;95306;-62
2022/05/19 10:03:22;;;;;;;5.90;3.30;;;21.70;68.30;;;;;;4970851;28;92771;-63
2022/05/19 10:05:55;;;;;;;3.58;3.28;;;21.70;68.80;;;;;;4970614;28;94264;-63
2022/05/19 10:08:37;;;;;;;4.63;3.10;;;21.70;69.40;;;;;;4969177;28;93668;-63
2022/05/19 10:11:05;;;;;;;3.20;2.90;;;21.70;69.40;;;;;;4969454;28;96305;-63
2022/05/19 10:13:43;;;;;;;4.82;3.22;;;21.60;69.50;;;;;;4970251;28;95083;-63
2022/05/19 10:16:25;;;;;;;3.83;3.10;;;21.70;70.00;;;;;;4970998;28;93023;-63
2022/05/19 10:19:29;;;;;;;3.42;3.13;;;21.70;69.80;;;;;;4952839;28;92630;-63
2022/05/19 10:22:29;;;;;;;3.53;3.00;;;21.70;70.10;;;;;;4947146;28;93004;-64
2022/05/19 10:25:06;;;;;;;5.20;3.03;;;21.80;70.10;;;;;;4952765;28;92509;-64
2022/05/19 10:31:02;;;;;;;29.10;10.20;;;21.80;70.70;;;;;;4969323;28;92243;-64
2022/05/19 10:33:42;;;;;;;24.02;9.52;;;21.90;71.00;;;;;;4951361;28;95443;-61
2022/05/19 10:36:19;;;;;;;20.63;8.70;;;22.00;71.00;;;;;;4970577;28;92876;-61
2022/05/19 10:39:10;;;;;;;17.15;8.27;;;22.00;71.10;;;;;;4968691;28;95120;-61
2022/05/19 10:42:13;;;;;;;22.10;7.90;;;22.00;71.00;;;;;;4970113;28;92987;-61
2022/05/19 10:44:56;;;;;;;15.80;6.88;;;22.00;71.00;;;;;;4970542;28;93452;-61
2022/05/19 10:47:55;;;;;;;15.95;7.20;;;22.10;70.90;;;;;;4951041;28;94848;-61
2022/05/19 10:50:32;;;;;;;21.60;7.10;;;22.10;70.80;;;;;;4969907;28;92638;-62
2022/05/19 10:53:16;;;;;;;15.57;6.53;;;22.10;70.50;;;;;;4969293;28;93084;-62
2022/05/19 10:56:13;;;;;;;16.55;6.35;;;22.10;70.40;;;;;;4969949;28;93116;-62
2022/05/19 10:59:16;;;;;;;13.77;6.63;;;22.10;70.30;;;;;;4970481;28;92549;-63
2022/05/19 11:02:18;;;;;;;16.25;6.70;;;22.10;70.20;;;;;;4951548;28;93005;-62
2022/05/19 11:05:05;;;;;;;16.00;5.97;;;22.10;70.20;;;;;;4970067;28;93955;-62
2022/05/19 11:07:47;;;;;;;13.45;5.93;;;22.10;70.10;;;;;;4950014;28;95754;-62
2022/05/19 11:10:21;;;;;;;14.73;6.75;;;22.10;69.90;;;;;;4969993;28;95068;-62
2022/05/19 11:13:25;;;;;;;14.45;7.03;;;22.10;69.70;;;;;;4969606;28;92937;-63
2022/05/19 11:16:18;;;;;;;15.38;6.03;;;22.10;69.60;;;;;;4969619;28;92818;-63
2022/05/19 11:19:07;;;;;;;13.88;5.78;;;22.10;69.50;;;;;;4970758;28;93368;-62
2022/05/19 11:21:38;;;;;;;12.32;5.78;;;22.10;69.50;;;;;;4973532;28;92908;-62
2022/05/19 11:24:21;;;;;;;15.80;6.07;;;22.10;69.50;;;;;;4955264;28;92495;-62
2022/05/19 11:26:47;;;;;;;;;;;22.10;69.90;;;;;;4974163;28;91835;-62
2022/05/19 11:29:32;;;;;;;12.13;5.75;;;22.00;69.90;;;;;;4974772;28;93563;-62
2022/05/19 11:32:18;;;;;;;11.35;5.40;;;22.10;70.30;;;;;;4973180;28;93307;-62
2022/05/19 11:35:05;;;;;;;13.70;5.45;;;22.10;70.40;;;;;;4971627;28;95169;-62
2022/05/19 11:37:40;;;;;;;12.45;5.45;;;22.10;70.30;;;;;;4973121;28;92630;-62
2022/05/19 11:40:37;;;;;;;10.88;5.22;;;22.10;70.20;;;;;;4972723;28;93173;-63
2022/05/19 11:43:24;;;;;;;12.23;5.60;;;22.10;70.10;;;;;;4972959;28;93523;-62
2022/05/19 11:45:59;;;;;;;10.57;5.45;;;22.00;70.00;;;;;;4973499;28;92953;-62
2022/05/19 11:57:45;;;;;;;11.07;5.50;;;22.00;69.80;;;;;;4973179;28;92757;-62
2022/05/19 12:00:17;;;;;;;9.80;5.03;;;22.00;69.70;;;;;;4972454;28;92791;-62
2022/05/19 12:03:02;;;;;;;11.32;5.47;;;22.00;69.70;;;;;;4971322;28;95889;-62
2022/05/19 12:05:30;;;;;;;12.68;5.22;;;22.00;69.60;;;;;;4971613;28;95058;-62
2022/05/19 12:08:00;;;;;;;9.40;4.95;;;21.90;69.60;;;;;;4972115;28;92864;-62
2022/05/19 12:10:36;;;;;;;11.15;5.10;;;21.90;69.50;;;;;;4972642;28;92894;-62
2022/05/19 12:13:04;;;;;;;9.50;5.05;;;22.00;69.50;;;;;;4972072;28;92956;-62
2022/05/19 12:15:50;;;;;;;9.63;4.82;;;21.90;69.50;;;;;;4971074;28;92995;-61
2022/05/19 12:18:24;;;;;;;12.88;5.18;;;21.90;69.30;;;;;;4972627;28;92759;-62
2022/05/19 12:21:05;;;;;;;12.00;4.97;;;21.90;69.40;;;;;;4973785;28;92447;-62
2022/05/19 12:23:38;;;;;;;9.13;4.88;;;21.90;69.50;;;;;;4972762;28;93172;-62
2022/05/19 12:26:16;;;;;;;10.27;5.32;;;21.90;69.50;;;;;;4971275;28;93034;-62
2022/05/19 12:28:53;;;;;;;9.50;4.90;;;21.90;69.40;;;;;;4970924;28;94971;-62
2022/05/19 12:34:32;;;;;;;9.02;5.38;;;21.90;69.50;;;;;;4971982;28;93172;-62
2022/05/19 12:37:28;;;;;;;8.43;5.18;;;21.90;69.70;;;;;;4971263;28;93083;-63
2022/05/19 12:40:19;;;;;;;9.25;4.88;;;21.80;69.70;;;;;;4956888;28;92801;-62
2022/05/19 12:42:45;;;;;;;9.52;5.45;;;21.80;69.70;;;;;;4953851;28;93206;-62
2022/05/19 12:46:00;;;;;;;9.75;5.00;;;21.80;70.70;;;;;;4972117;28;93065;-62
2022/05/19 12:48:32;;;;;;;11.10;5.22;;;21.80;70.60;;;;;;4968540;28;92587;-62
2022/05/19 12:51:11;;;;;;;8.93;4.85;;;21.80;69.80;;;;;;4972270;28;92536;-63
2022/05/19 12:53:49;;;;;;;9.88;5.28;;;21.80;69.60;;;;;;4954324;28;93154;-62
2022/05/19 12:56:51;;;;;;;8.05;4.50;;;21.80;69.50;;;;;;4970277;28;96951;-62
2022/05/19 12:59:26;;;;;;;8.35;4.97;;;21.80;69.30;;;;;;4971575;28;95616;-62
2022/05/19 13:01:57;;;;;;;9.73;4.72;;;21.80;69.40;;;;;;4971354;28;92484;-62
2022/05/19 13:04:25;;;;;;;7.68;4.60;;;21.80;69.40;;;;;;4971947;28;92585;-62
2022/05/19 13:06:53;;;;;;;9.13;4.60;;;21.80;69.40;;;;;;4971378;28;93729;-62
2022/05/19 13:09:25;;;;;;;8.10;4.80;;;21.70;69.30;;;;;;4970704;28;93320;-63
2022/05/19 13:11:55;;;;;;;8.82;3.92;;;21.80;69.30;;;;;;4970693;28;92603;-64
2022/05/19 13:14:31;;;;;;;8.32;4.65;;;21.80;69.30;;;;;;4972213;28;92124;-62
2022/05/19 13:16:57;;;;;;;6.55;3.97;;;21.70;69.20;;;;;;4970866;28;92953;-62
2022/05/19 13:19:30;;;;;;;10.00;4.60;;;21.70;69.00;;;;;;4970322;28;93320;-62
2022/05/19 13:22:03;;;;;;;8.13;4.07;;;21.70;69.10;;;;;;4969936;28;94894;-63
2022/05/19 13:24:38;;;;;;;7.47;4.43;;;21.70;69.10;;;;;;4934108;28;92880;-62
2022/05/19 13:32:38;;;;;;;8.25;4.15;;;21.70;69.10;;;;;;4971671;28;93019;-63
2022/05/19 13:35:18;;;;;;;8.50;4.35;;;21.60;68.80;;;;;;4969476;28;92829;-62
2022/05/19 13:37:46;;;;;;;8.30;4.00;;;21.70;68.80;;;;;;4970572;28;94483;-62